sensor_id;sensor_type;location;lat;lon;timestamp;pressure;altitude;pressure_sealevel;temperature;humidity
68889;BME280;55930;47.412;8.790;2023-02-19T00:03:02;95354.63;;;5.58;100.00
68889;BME280;55930;47.412;8.790;2023-02-19T00:06:24;95354.28;;;5.56;100.00
68889;BME280;55930;47.412;8.790;2023-02-19T00:09:45;95346.38;;;5.36;100.00
68889;BME280;55930;47.412;8.790;2023-02-19T00:13:05;95348.31;;;5.52;100.00
68889;BME280;55930;47.412;8.790;2023-02-19T00:19:50;95343.59;;;5.63;100.00
68889;BME280;55930;47.412;8.790;2023-02-19T00:23:11;95341.66;;;5.48;100.00
68889;BME280;55930;47.412;8.790;2023-02-19T00:26:32;95338.28;;;5.47;100.00
68889;BME280;55930;47.412;8.790;2023-02-19T00:29:55;95337.88;;;5.49;100.00
68889;BME280;55930;47.412;8.790;2023-02-19T00:33:15;95329.97;;;5.68;100.00
68889;BME280;55930;47.412;8.790;2023-02-19T00:36:39;95336.66;;;5.53;100.00
68889;BME280;55930;47.412;8.790;2023-02-19T00:40:00;95334.69;;;5.37;100.00
68889;BME280;55930;47.412;8.790;2023-02-19T00:43:20;95331.19;;;5.44;100.00
68889;BME280;55930;47.412;8.790;2023-02-19T00:46:45;95329.31;;;5.45;100.00
68889;BME280;55930;47.412;8.790;2023-02-19T00:50:06;95323.25;;;5.48;100.00
68889;BME280;55930;47.412;8.790;2023-02-19T00:53:26;95324.63;;;5.52;100.00
68889;BME280;55930;47.412;8.790;2023-02-19T00:56:47;95315.59;;;5.53;100.00
68889;BME280;55930;47.412;8.790;2023-02-19T01:00:08;95325.25;;;5.40;100.00
68889;BME280;55930;47.412;8.790;2023-02-19T01:03:29;95329.31;;;5.25;100.00
68889;BME280;55930;47.412;8.790;2023-02-19T01:06:49;95323.25;;;5.48;100.00
68889;BME280;55930;47.412;8.790;2023-02-19T01:10:09;95330.97;;;5.35;100.00
68889;BME280;55930;47.412;8.790;2023-02-19T01:13:30;95326.81;;;5.37;100.00
68889;BME280;55930;47.412;8.790;2023-02-19T01:16:53;95318.44;;;5.23;100.00
68889;BME280;55930;47.412;8.790;2023-02-19T01:20:13;95314.53;;;5.11;100.00
68889;BME280;55930;47.412;8.790;2023-02-19T01:23:34;95318.06;;;5.24;100.00
68889;BME280;55930;47.412;8.790;2023-02-19T01:26:55;95305.03;;;5.37;100.00
68889;BME280;55930;47.412;8.790;2023-02-19T01:30:15;95308.28;;;5.25;100.00
68889;BME280;55930;47.412;8.790;2023-02-19T01:33:35;95308.59;;;5.27;100.00
68889;BME280;55930;47.412;8.790;2023-02-19T01:36:56;95305.34;;;5.19;100.00
68889;BME280;55930;47.412;8.790;2023-02-19T01:40:16;95305.78;;;5.18;100.00
68889;BME280;55930;47.412;8.790;2023-02-19T01:47:19;95314.06;;;5.36;100.00
68889;BME280;55930;47.412;8.790;2023-02-19T01:50:47;95309.81;;;5.03;100.00
68889;BME280;55930;47.412;8.790;2023-02-19T01:54:10;95311.50;;;4.93;100.00
68889;BME280;55930;47.412;8.790;2023-02-19T01:57:35;95303.47;;;5.00;100.00
68889;BME280;55930;47.412;8.790;2023-02-19T02:01:00;95308.13;;;4.92;100.00
68889;BME280;55930;47.412;8.790;2023-02-19T02:04:21;95302.94;;;5.09;100.00
68889;BME280;55930;47.412;8.790;2023-02-19T02:07:42;95302.41;;;5.17;100.00
68889;BME280;55930;47.412;8.790;2023-02-19T02:11:21;95292.81;;;5.47;100.00
68889;BME280;55930;47.412;8.790;2023-02-19T02:14:44;95278.69;;;5.57;100.00
68889;BME280;55930;47.412;8.790;2023-02-19T02:18:20;95268.72;;;5.48;100.00
68889;BME280;55930;47.412;8.790;2023-02-19T02:25:20;95254.75;;;5.51;100.00
68889;BME280;55930;47.412;8.790;2023-02-19T02:29:18;95258.06;;;5.55;100.00
68889;BME280;55930;47.412;8.790;2023-02-19T02:32:55;95249.63;;;5.44;100.00
68889;BME280;55930;47.412;8.790;2023-02-19T02:36:21;95239.53;;;5.59;100.00
68889;BME280;55930;47.412;8.790;2023-02-19T02:39:46;95244.69;;;5.66;100.00
68889;BME280;55930;47.412;8.790;2023-02-19T02:43:06;95238.06;;;5.42;100.00
68889;BME280;55930;47.412;8.790;2023-02-19T02:46:33;95234.44;;;5.16;100.00
68889;BME280;55930;47.412;8.790;2023-02-19T02:49:59;95222.84;;;5.49;100.00
68889;BME280;55930;47.412;8.790;2023-02-19T02:53:36;95227.88;;;5.60;100.00
68889;BME280;55930;47.412;8.790;2023-02-19T02:57:24;95233.56;;;5.58;100.00
68889;BME280;55930;47.412;8.790;2023-02-19T03:00:48;95240.75;;;5.74;100.00
68889;BME280;55930;47.412;8.790;2023-02-19T03:11:10;95233.53;;;5.42;100.00
68889;BME280;55930;47.412;8.790;2023-02-19T03:14:52;95242.72;;;5.34;100.00
68889;BME280;55930;47.412;8.790;2023-02-19T03:18:35;95248.03;;;5.50;100.00
68889;BME280;55930;47.412;8.790;2023-02-19T03:22:21;95249.78;;;5.37;100.00
68889;BME280;55930;47.412;8.790;2023-02-19T03:25:45;95247.19;;;5.53;100.00
68889;BME280;55930;47.412;8.790;2023-02-19T03:29:29;95244.22;;;5.51;100.00
68889;BME280;55930;47.412;8.790;2023-02-19T03:32:54;95239.13;;;5.60;100.00
68889;BME280;55930;47.412;8.790;2023-02-19T03:36:17;95243.38;;;5.74;100.00
68889;BME280;55930;47.412;8.790;2023-02-19T03:39:44;95241.38;;;5.98;100.00
68889;BME280;55930;47.412;8.790;2023-02-19T03:43:39;95234.28;;;5.95;100.00
68889;BME280;55930;47.412;8.790;2023-02-19T03:47:32;95247.94;;;6.06;100.00
68889;BME280;55930;47.412;8.790;2023-02-19T03:58:15;95262.09;;;6.12;100.00
68889;BME280;55930;47.412;8.790;2023-02-19T04:01:57;95288.31;;;5.99;100.00
68889;BME280;55930;47.412;8.790;2023-02-19T04:05:28;95288.59;;;6.21;100.00
68889;BME280;55930;47.412;8.790;2023-02-19T04:08:57;95281.53;;;6.34;100.00
68889;BME280;55930;47.412;8.790;2023-02-19T04:12:19;95282.34;;;6.31;100.00
68889;BME280;55930;47.412;8.790;2023-02-19T04:15:41;95274.88;;;6.30;100.00
68889;BME280;55930;47.412;8.790;2023-02-19T04:19:12;95256.91;;;6.25;100.00
68889;BME280;55930;47.412;8.790;2023-02-19T04:22:36;95235.59;;;6.19;100.00
68889;BME280;55930;47.412;8.790;2023-02-19T04:25:58;95238.47;;;6.25;100.00
68889;BME280;55930;47.412;8.790;2023-02-19T04:29:20;95248.50;;;6.30;100.00
68889;BME280;55930;47.412;8.790;2023-02-19T04:32:40;95239.53;;;6.27;100.00
68889;BME280;55930;47.412;8.790;2023-02-19T04:36:01;95247.09;;;6.25;100.00
68889;BME280;55930;47.412;8.790;2023-02-19T04:39:21;95245.63;;;6.24;100.00
68889;BME280;55930;47.412;8.790;2023-02-19T04:42:42;95231.69;;;6.24;100.00
68889;BME280;55930;47.412;8.790;2023-02-19T04:46:02;95234.78;;;6.22;100.00
68889;BME280;55930;47.412;8.790;2023-02-19T04:49:22;95243.38;;;6.23;100.00
68889;BME280;55930;47.412;8.790;2023-02-19T04:52:43;95238.06;;;6.26;100.00
68889;BME280;55930;47.412;8.790;2023-02-19T04:56:11;95237.63;;;6.28;100.00
68889;BME280;55930;47.412;8.790;2023-02-19T04:59:32;95260.84;;;6.33;100.00
68889;BME280;55930;47.412;8.790;2023-02-19T05:02:52;95267.44;;;6.25;100.00
68889;BME280;55930;47.412;8.790;2023-02-19T05:06:13;95262.56;;;6.23;100.00
68889;BME280;55930;47.412;8.790;2023-02-19T05:09:33;95254.84;;;6.16;100.00
68889;BME280;55930;47.412;8.790;2023-02-19T05:12:54;95265.81;;;6.14;100.00
68889;BME280;55930;47.412;8.790;2023-02-19T05:16:17;95258.72;;;5.95;100.00
68889;BME280;55930;47.412;8.790;2023-02-19T05:19:38;95253.75;;;5.81;100.00
68889;BME280;55930;47.412;8.790;2023-02-19T05:22:58;95250.28;;;5.84;100.00
68889;BME280;55930;47.412;8.790;2023-02-19T05:26:20;95253.50;;;5.92;100.00
68889;BME280;55930;47.412;8.790;2023-02-19T05:29:41;95253.59;;;5.88;100.00
68889;BME280;55930;47.412;8.790;2023-02-19T05:33:02;95265.88;;;5.95;100.00
68889;BME280;55930;47.412;8.790;2023-02-19T05:36:22;95249.56;;;6.00;100.00
68889;BME280;55930;47.412;8.790;2023-02-19T05:39:43;95264.56;;;6.03;100.00
68889;BME280;55930;47.412;8.790;2023-02-19T05:43:03;95256.31;;;6.01;100.00
68889;BME280;55930;47.412;8.790;2023-02-19T05:46:28;95255.56;;;6.00;100.00
68889;BME280;55930;47.412;8.790;2023-02-19T05:49:48;95271.78;;;5.99;100.00
68889;BME280;55930;47.412;8.790;2023-02-19T05:53:09;95272.06;;;6.04;100.00
68889;BME280;55930;47.412;8.790;2023-02-19T05:56:32;95261.44;;;6.08;100.00
68889;BME280;55930;47.412;8.790;2023-02-19T05:59:53;95258.78;;;6.08;100.00
68889;BME280;55930;47.412;8.790;2023-02-19T06:03:14;95273.44;;;6.09;100.00
68889;BME280;55930;47.412;8.790;2023-02-19T06:06:35;95283.91;;;6.12;100.00
68889;BME280;55930;47.412;8.790;2023-02-19T06:09:56;95293.88;;;6.05;100.00
68889;BME280;55930;47.412;8.790;2023-02-19T06:13:16;95299.28;;;5.98;100.00
68889;BME280;55930;47.412;8.790;2023-02-19T06:16:37;95321.25;;;6.07;100.00
68889;BME280;55930;47.412;8.790;2023-02-19T06:19:57;95329.06;;;5.95;100.00
68889;BME280;55930;47.412;8.790;2023-02-19T06:23:18;95332.09;;;5.93;100.00
68889;BME280;55930;47.412;8.790;2023-02-19T06:26:40;95319.53;;;6.01;100.00
68889;BME280;55930;47.412;8.790;2023-02-19T06:30:01;95324.56;;;6.11;100.00
68889;BME280;55930;47.412;8.790;2023-02-19T06:33:21;95325.06;;;6.06;100.00
68889;BME280;55930;47.412;8.790;2023-02-19T06:36:42;95336.31;;;6.07;100.00
68889;BME280;55930;47.412;8.790;2023-02-19T06:40:02;95340.19;;;6.02;100.00
68889;BME280;55930;47.412;8.790;2023-02-19T06:43:23;95343.41;;;6.10;100.00
68889;BME280;55930;47.412;8.790;2023-02-19T06:46:46;95348.63;;;6.13;100.00
68889;BME280;55930;47.412;8.790;2023-02-19T06:50:08;95347.78;;;6.17;100.00
68889;BME280;55930;47.412;8.790;2023-02-19T06:53:29;95357.91;;;6.18;100.00
68889;BME280;55930;47.412;8.790;2023-02-19T06:56:49;95357.09;;;6.21;100.00
68889;BME280;55930;47.412;8.790;2023-02-19T07:00:10;95364.16;;;6.24;100.00
68889;BME280;55930;47.412;8.790;2023-02-19T07:03:30;95372.91;;;6.21;100.00
68889;BME280;55930;47.412;8.790;2023-02-19T07:06:51;95380.31;;;6.26;100.00
68889;BME280;55930;47.412;8.790;2023-02-19T07:10:11;95383.88;;;6.36;100.00
68889;BME280;55930;47.412;8.790;2023-02-19T07:13:31;95388.75;;;6.37;100.00
68889;BME280;55930;47.412;8.790;2023-02-19T07:16:52;95388.41;;;6.35;100.00
68889;BME280;55930;47.412;8.790;2023-02-19T07:20:12;95398.38;;;6.44;100.00
68889;BME280;55930;47.412;8.790;2023-02-19T07:23:33;95399.69;;;6.52;100.00
68889;BME280;55930;47.412;8.790;2023-02-19T07:26:54;95405.72;;;6.52;100.00
68889;BME280;55930;47.412;8.790;2023-02-19T07:30:14;95411.31;;;6.71;100.00
68889;BME280;55930;47.412;8.790;2023-02-19T07:33:34;95417.75;;;6.70;100.00
68889;BME280;55930;47.412;8.790;2023-02-19T07:36:55;95418.16;;;6.68;100.00
68889;BME280;55930;47.412;8.790;2023-02-19T07:40:18;95430.84;;;6.73;100.00
68889;BME280;55930;47.412;8.790;2023-02-19T07:43:39;95442.53;;;6.72;100.00
68889;BME280;55930;47.412;8.790;2023-02-19T07:46:59;95451.03;;;6.64;100.00
68889;BME280;55930;47.412;8.790;2023-02-19T07:50:20;95452.94;;;6.79;100.00
68889;BME280;55930;47.412;8.790;2023-02-19T07:53:40;95455.25;;;6.77;100.00
68889;BME280;55930;47.412;8.790;2023-02-19T07:57:01;95456.06;;;6.74;100.00
68889;BME280;55930;47.412;8.790;2023-02-19T08:00:21;95463.41;;;6.83;100.00
68889;BME280;55930;47.412;8.790;2023-02-19T08:03:42;95463.81;;;6.81;100.00
68889;BME280;55930;47.412;8.790;2023-02-19T08:07:03;95462.44;;;6.93;100.00
68889;BME280;55930;47.412;8.790;2023-02-19T08:10:25;95466.13;;;6.96;100.00
68889;BME280;55930;47.412;8.790;2023-02-19T08:14:04;95473.63;;;6.97;100.00
68889;BME280;55930;47.412;8.790;2023-02-19T08:17:24;95476.44;;;7.06;100.00
68889;BME280;55930;47.412;8.790;2023-02-19T08:20:45;95478.00;;;7.20;100.00
68889;BME280;55930;47.412;8.790;2023-02-19T08:24:08;95481.72;;;7.22;100.00
68889;BME280;55930;47.412;8.790;2023-02-19T08:27:28;95483.94;;;7.24;100.00
68889;BME280;55930;47.412;8.790;2023-02-19T08:30:49;95473.72;;;7.42;100.00
68889;BME280;55930;47.412;8.790;2023-02-19T08:34:10;95488.28;;;7.47;100.00
68889;BME280;55930;47.412;8.790;2023-02-19T08:37:30;95494.06;;;7.42;100.00
68889;BME280;55930;47.412;8.790;2023-02-19T08:40:50;95512.38;;;7.49;100.00
68889;BME280;55930;47.412;8.790;2023-02-19T08:44:11;95516.06;;;7.51;100.00
68889;BME280;55930;47.412;8.790;2023-02-19T08:47:35;95511.97;;;7.34;100.00
68889;BME280;55930;47.412;8.790;2023-02-19T08:50:58;95512.63;;;7.38;100.00
68889;BME280;55930;47.412;8.790;2023-02-19T08:54:20;95511.28;;;7.62;100.00
68889;BME280;55930;47.412;8.790;2023-02-19T08:57:40;95509.69;;;7.81;100.00
68889;BME280;55930;47.412;8.790;2023-02-19T09:01:01;95510.50;;;7.78;100.00
68889;BME280;55930;47.412;8.790;2023-02-19T09:04:21;95505.03;;;8.14;100.00
68889;BME280;55930;47.412;8.790;2023-02-19T09:07:42;95510.09;;;8.08;100.00
68889;BME280;55930;47.412;8.790;2023-02-19T09:11:04;95515.91;;;8.03;100.00
68889;BME280;55930;47.412;8.790;2023-02-19T09:14:26;95509.69;;;8.23;100.00
68889;BME280;55930;47.412;8.790;2023-02-19T09:17:53;95513.66;;;8.31;100.00
68889;BME280;55930;47.412;8.790;2023-02-19T09:21:13;95515.53;;;8.30;100.00
68889;BME280;55930;47.412;8.790;2023-02-19T09:24:33;95511.44;;;8.29;100.00
68889;BME280;55930;47.412;8.790;2023-02-19T09:27:55;95504.91;;;8.47;100.00
68889;BME280;55930;47.412;8.790;2023-02-19T09:31:15;95516.50;;;8.91;99.65
68889;BME280;55930;47.412;8.790;2023-02-19T09:34:36;95511.06;;;8.43;99.35
68889;BME280;55930;47.412;8.790;2023-02-19T09:37:59;95520.50;;;8.57;100.00
68889;BME280;55930;47.412;8.790;2023-02-19T09:41:30;95519.44;;;8.67;98.65
68889;BME280;55930;47.412;8.790;2023-02-19T09:44:54;95517.00;;;8.60;99.43
68889;BME280;55930;47.412;8.790;2023-02-19T09:48:16;95511.94;;;8.91;99.03
68889;BME280;55930;47.412;8.790;2023-02-19T09:51:39;95515.63;;;9.19;97.36
68889;BME280;55930;47.412;8.790;2023-02-19T09:55:04;95517.66;;;9.15;97.76
68889;BME280;55930;47.412;8.790;2023-02-19T09:58:34;95517.66;;;9.02;97.39
68889;BME280;55930;47.412;8.790;2023-02-19T10:02:03;95512.38;;;9.62;95.12
68889;BME280;55930;47.412;8.790;2023-02-19T10:05:25;95507.63;;;10.57;90.38
68889;BME280;55930;47.412;8.790;2023-02-19T10:08:46;95510.13;;;10.29;89.64
68889;BME280;55930;47.412;8.790;2023-02-19T10:12:15;95516.75;;;10.12;91.64
68889;BME280;55930;47.412;8.790;2023-02-19T10:15:43;95514.34;;;12.23;81.72
68889;BME280;55930;47.412;8.790;2023-02-19T10:19:08;95517.09;;;11.47;84.78
68889;BME280;55930;47.412;8.790;2023-02-19T10:22:35;95517.47;;;12.04;81.46
68889;BME280;55930;47.412;8.790;2023-02-19T10:25:58;95522.50;;;12.02;80.60
68889;BME280;55930;47.412;8.790;2023-02-19T10:29:19;95525.28;;;12.16;81.73
68889;BME280;55930;47.412;8.790;2023-02-19T10:32:58;95534.91;;;11.28;85.49
68889;BME280;55930;47.412;8.790;2023-02-19T10:36:32;95531.16;;;11.07;87.73
68889;BME280;55930;47.412;8.790;2023-02-19T10:39:55;95527.94;;;12.07;83.37
68889;BME280;55930;47.412;8.790;2023-02-19T10:43:22;95533.66;;;13.02;78.14
68889;BME280;55930;47.412;8.790;2023-02-19T10:46:54;95527.88;;;18.83;56.04
68889;BME280;55930;47.412;8.790;2023-02-19T10:50:25;95518.53;;;23.00;42.67
68889;BME280;55930;47.412;8.790;2023-02-19T10:54:02;95516.91;;;25.25;36.44
68889;BME280;55930;47.412;8.790;2023-02-19T10:57:30;95508.13;;;24.91;35.52
68889;BME280;55930;47.412;8.790;2023-02-19T11:04:33;95505.34;;;18.47;47.57
68889;BME280;55930;47.412;8.790;2023-02-19T11:07:55;95512.38;;;18.11;50.44
68889;BME280;55930;47.412;8.790;2023-02-19T11:11:32;95510.84;;;16.76;56.79
68889;BME280;55930;47.412;8.790;2023-02-19T11:14:53;95516.38;;;13.64;67.02
68889;BME280;55930;47.412;8.790;2023-02-19T11:18:32;95512.72;;;13.52;68.71
68889;BME280;55930;47.412;8.790;2023-02-19T11:21:58;95513.75;;;13.78;69.76
68889;BME280;55930;47.412;8.790;2023-02-19T11:25:20;95508.88;;;12.27;73.02
68889;BME280;55930;47.412;8.790;2023-02-19T11:28:54;95513.59;;;11.10;80.66
68889;BME280;55930;47.412;8.790;2023-02-19T11:35:39;95508.53;;;10.63;82.55
68889;BME280;55930;47.412;8.790;2023-02-19T11:42:44;95516.78;;;10.34;84.27
68889;BME280;55930;47.412;8.790;2023-02-19T11:46:23;95515.19;;;9.80;85.33
68889;BME280;55930;47.412;8.790;2023-02-19T11:50:05;95520.25;;;9.87;85.48
68889;BME280;55930;47.412;8.790;2023-02-19T11:53:33;95512.50;;;9.93;86.41
68889;BME280;55930;47.412;8.790;2023-02-19T11:57:21;95514.75;;;9.82;86.88
68889;BME280;55930;47.412;8.790;2023-02-19T12:16:20;95484.81;;;9.94;85.84
68889;BME280;55930;47.412;8.790;2023-02-19T12:38:29;95480.00;;;9.45;88.65
68889;BME280;55930;47.412;8.790;2023-02-19T12:45:24;95493.75;;;9.53;87.73
68889;BME280;55930;47.412;8.790;2023-02-19T12:52:22;95494.56;;;9.15;88.08
68889;BME280;55930;47.412;8.790;2023-02-19T12:55:45;95496.28;;;8.84;89.40
68889;BME280;55930;47.412;8.790;2023-02-19T12:59:14;95501.66;;;8.80;89.27
68889;BME280;55930;47.412;8.790;2023-02-19T13:02:52;95489.50;;;8.96;88.98
68889;BME280;55930;47.412;8.790;2023-02-19T13:06:29;95495.94;;;8.57;92.59
68889;BME280;55930;47.412;8.790;2023-02-19T13:09:54;95504.28;;;8.55;90.12
68889;BME280;55930;47.412;8.790;2023-02-19T13:13:30;95510.47;;;8.77;89.58
68889;BME280;55930;47.412;8.790;2023-02-19T13:17:01;95506.22;;;8.80;88.94
68889;BME280;55930;47.412;8.790;2023-02-19T13:20:41;95514.19;;;8.93;88.35
68889;BME280;55930;47.412;8.790;2023-02-19T13:24:19;95507.81;;;9.03;88.06
68889;BME280;55930;47.412;8.790;2023-02-19T13:27:56;95507.06;;;9.15;87.98
68889;BME280;55930;47.412;8.790;2023-02-19T13:38:46;95515.94;;;8.70;89.45
68889;BME280;55930;47.412;8.790;2023-02-19T13:42:23;95510.47;;;8.90;88.38
68889;BME280;55930;47.412;8.790;2023-02-19T13:45:44;95510.97;;;8.60;89.69
68889;BME280;55930;47.412;8.790;2023-02-19T13:49:38;95501.66;;;8.55;90.05
68889;BME280;55930;47.412;8.790;2023-02-19T14:00:49;95506.63;;;8.66;89.97
68889;BME280;55930;47.412;8.790;2023-02-19T14:07:53;95495.53;;;8.46;90.45
68889;BME280;55930;47.412;8.790;2023-02-19T14:11:18;95500.53;;;8.69;89.87
68889;BME280;55930;47.412;8.790;2023-02-19T14:16:02;95499.66;;;8.59;89.89
68889;BME280;55930;47.412;8.790;2023-02-19T14:18:57;95492.47;;;8.72;88.79
68889;BME280;55930;47.412;8.790;2023-02-19T14:26:06;95495.44;;;8.62;89.13
68889;BME280;55930;47.412;8.790;2023-02-19T14:29:27;95499.19;;;8.35;89.04
68889;BME280;55930;47.412;8.790;2023-02-19T14:32:49;95504.09;;;8.62;87.76
68889;BME280;55930;47.412;8.790;2023-02-19T14:39:36;95505.81;;;8.69;86.94
68889;BME280;55930;47.412;8.790;2023-02-19T14:42:59;95503.69;;;8.76;86.79
68889;BME280;55930;47.412;8.790;2023-02-19T14:46:40;95496.91;;;8.75;86.16
68889;BME280;55930;47.412;8.790;2023-02-19T14:50:26;95488.13;;;8.66;86.01
68889;BME280;55930;47.412;8.790;2023-02-19T14:53:50;95491.31;;;8.73;87.21
68889;BME280;55930;47.412;8.790;2023-02-19T14:57:27;95495.44;;;8.62;86.05
68889;BME280;55930;47.412;8.790;2023-02-19T15:00:48;95482.41;;;8.42;86.83
68889;BME280;55930;47.412;8.790;2023-02-19T15:04:24;95481.31;;;8.39;86.27
68889;BME280;55930;47.412;8.790;2023-02-19T15:07:45;95486.19;;;8.41;86.82
68889;BME280;55930;47.412;8.790;2023-02-19T15:11:13;95480.56;;;8.39;85.96
68889;BME280;55930;47.412;8.790;2023-02-19T15:14:34;95488.88;;;8.54;86.16
68889;BME280;55930;47.412;8.790;2023-02-19T15:17:56;95494.34;;;8.47;85.87
68889;BME280;55930;47.412;8.790;2023-02-19T15:21:30;95503.13;;;8.56;86.50
68889;BME280;55930;47.412;8.790;2023-02-19T15:24:51;95511.56;;;8.38;85.98
68889;BME280;55930;47.412;8.790;2023-02-19T15:31:48;95524.47;;;8.36;86.91
68889;BME280;55930;47.412;8.790;2023-02-19T15:35:18;95533.16;;;8.37;87.35
68889;BME280;55930;47.412;8.790;2023-02-19T15:38:39;95541.13;;;8.21;87.76
68889;BME280;55930;47.412;8.790;2023-02-19T15:42:01;95539.22;;;8.21;88.59
68889;BME280;55930;47.412;8.790;2023-02-19T15:45:30;95536.84;;;8.11;88.47
68889;BME280;55930;47.412;8.790;2023-02-19T15:49:00;95548.25;;;8.07;89.03
68889;BME280;55930;47.412;8.790;2023-02-19T15:56:11;95549.88;;;7.89;88.35
68889;BME280;55930;47.412;8.790;2023-02-19T15:59:40;95553.88;;;7.93;88.56
68889;BME280;55930;47.412;8.790;2023-02-19T16:03:04;95553.16;;;7.93;89.21
68889;BME280;55930;47.412;8.790;2023-02-19T16:06:28;95556.50;;;7.81;88.77
68889;BME280;55930;47.412;8.790;2023-02-19T16:10:19;95555.91;;;7.89;87.91
68889;BME280;55930;47.412;8.790;2023-02-19T16:13:40;95556.00;;;7.69;88.92
68889;BME280;55930;47.412;8.790;2023-02-19T16:20:32;95569.22;;;7.53;89.78
68889;BME280;55930;47.412;8.790;2023-02-19T16:24:02;95573.56;;;7.60;90.13
68889;BME280;55930;47.412;8.790;2023-02-19T16:27:34;95573.97;;;7.58;90.29
68889;BME280;55930;47.412;8.790;2023-02-19T16:31:09;95576.03;;;7.51;90.60
68889;BME280;55930;47.412;8.790;2023-02-19T16:34:49;95582.91;;;7.48;90.58
68889;BME280;55930;47.412;8.790;2023-02-19T16:38:12;95585.06;;;7.53;90.13
68889;BME280;55930;47.412;8.790;2023-02-19T16:41:42;95585.97;;;7.47;90.81
68889;BME280;55930;47.412;8.790;2023-02-19T16:45:14;95578.09;;;7.43;91.20
68889;BME280;55930;47.412;8.790;2023-02-19T16:48:35;95574.66;;;7.30;91.68
68889;BME280;55930;47.412;8.790;2023-02-19T16:51:57;95576.72;;;7.39;91.68
68889;BME280;55930;47.412;8.790;2023-02-19T16:55:18;95590.66;;;7.39;91.25
68889;BME280;55930;47.412;8.790;2023-02-19T16:58:39;95599.50;;;7.33;90.40
68889;BME280;55930;47.412;8.790;2023-02-19T17:02:02;95602.38;;;7.38;89.81
68889;BME280;55930;47.412;8.790;2023-02-19T17:05:25;95616.47;;;7.32;89.43
68889;BME280;55930;47.412;8.790;2023-02-19T17:08:49;95621.22;;;7.20;90.11
68889;BME280;55930;47.412;8.790;2023-02-19T17:12:11;95627.44;;;7.30;90.09
68889;BME280;55930;47.412;8.790;2023-02-19T17:15:31;95641.13;;;7.25;89.55
68889;BME280;55930;47.412;8.790;2023-02-19T17:18:53;95651.94;;;7.30;90.25
68889;BME280;55930;47.412;8.790;2023-02-19T17:22:17;95652.97;;;7.17;90.29
68889;BME280;55930;47.412;8.790;2023-02-19T17:25:38;95640.94;;;7.16;89.59
68889;BME280;55930;47.412;8.790;2023-02-19T17:29:05;95641.75;;;7.13;89.67
68889;BME280;55930;47.412;8.790;2023-02-19T17:32:25;95646.28;;;7.12;89.74
68889;BME280;55930;47.412;8.790;2023-02-19T17:35:46;95638.06;;;7.10;88.99
68889;BME280;55930;47.412;8.790;2023-02-19T17:39:12;95646.44;;;7.05;88.98
68889;BME280;55930;47.412;8.790;2023-02-19T17:42:35;95641.91;;;7.06;88.54
68889;BME280;55930;47.412;8.790;2023-02-19T17:45:55;95645.09;;;6.97;88.76
68889;BME280;55930;47.412;8.790;2023-02-19T17:49:15;95637.09;;;7.01;88.19
68889;BME280;55930;47.412;8.790;2023-02-19T17:52:36;95633.44;;;6.95;89.15
68889;BME280;55930;47.412;8.790;2023-02-19T17:55:56;95640.22;;;6.96;87.96
68889;BME280;55930;47.412;8.790;2023-02-19T17:59:17;95641.16;;;7.05;87.84
68889;BME280;55930;47.412;8.790;2023-02-19T18:02:37;95630.56;;;6.89;88.20
68889;BME280;55930;47.412;8.790;2023-02-19T18:05:57;95630.63;;;6.85;90.05
68889;BME280;55930;47.412;8.790;2023-02-19T18:09:18;95627.66;;;6.83;90.75
68889;BME280;55930;47.412;8.790;2023-02-19T18:12:40;95638.31;;;6.96;90.62
68889;BME280;55930;47.412;8.790;2023-02-19T18:16:01;95648.25;;;6.88;91.99
68889;BME280;55930;47.412;8.790;2023-02-19T18:19:21;95643.13;;;6.81;93.21
68889;BME280;55930;47.412;8.790;2023-02-19T18:22:42;95644.97;;;6.84;93.70
68889;BME280;55930;47.412;8.790;2023-02-19T18:26:05;95649.50;;;6.84;92.17
68889;BME280;55930;47.412;8.790;2023-02-19T18:29:26;95657.47;;;6.80;92.91
68889;BME280;55930;47.412;8.790;2023-02-19T18:32:49;95663.03;;;6.86;92.63
68889;BME280;55930;47.412;8.790;2023-02-19T18:36:10;95662.75;;;6.80;93.88
68889;BME280;55930;47.412;8.790;2023-02-19T18:39:31;95668.56;;;6.52;98.00
68889;BME280;55930;47.412;8.790;2023-02-19T18:42:52;95672.41;;;6.67;96.20
68889;BME280;55930;47.412;8.790;2023-02-19T18:46:13;95679.59;;;6.67;96.27
68889;BME280;55930;47.412;8.790;2023-02-19T18:49:36;95675.06;;;6.67;95.16
68889;BME280;55930;47.412;8.790;2023-02-19T18:52:56;95680.66;;;6.69;95.71
68889;BME280;55930;47.412;8.790;2023-02-19T18:56:17;95688.03;;;6.58;96.75
68889;BME280;55930;47.412;8.790;2023-02-19T18:59:41;95688.91;;;6.51;96.25
68889;BME280;55930;47.412;8.790;2023-02-19T19:03:02;95691.00;;;6.60;94.61
68889;BME280;55930;47.412;8.790;2023-02-19T19:06:22;95684.16;;;6.63;94.33
68889;BME280;55930;47.412;8.790;2023-02-19T19:09:46;95687.28;;;6.58;94.81
68889;BME280;55930;47.412;8.790;2023-02-19T19:13:06;95690.13;;;6.67;94.61
68889;BME280;55930;47.412;8.790;2023-02-19T19:16:27;95688.97;;;6.68;95.00
68889;BME280;55930;47.412;8.790;2023-02-19T19:19:48;95692.16;;;6.59;97.37
68889;BME280;55930;47.412;8.790;2023-02-19T19:23:08;95682.34;;;6.60;96.57
68889;BME280;55930;47.412;8.790;2023-02-19T19:26:29;95688.19;;;6.47;100.00
68889;BME280;55930;47.412;8.790;2023-02-19T19:29:49;95698.47;;;6.42;100.00
68889;BME280;55930;47.412;8.790;2023-02-19T19:33:10;95698.44;;;6.45;99.92
68889;BME280;55930;47.412;8.790;2023-02-19T19:36:33;95690.50;;;6.45;100.00
68889;BME280;55930;47.412;8.790;2023-02-19T19:39:54;95683.75;;;6.44;98.25
68889;BME280;55930;47.412;8.790;2023-02-19T19:43:15;95693.91;;;6.46;100.00
68889;BME280;55930;47.412;8.790;2023-02-19T19:46:42;95695.44;;;6.43;100.00
68889;BME280;55930;47.412;8.790;2023-02-19T19:50:03;95688.31;;;6.40;100.00
68889;BME280;55930;47.412;8.790;2023-02-19T19:53:24;95694.28;;;6.44;98.95
68889;BME280;55930;47.412;8.790;2023-02-19T19:56:46;95694.91;;;6.52;98.28
68889;BME280;55930;47.412;8.790;2023-02-19T20:00:16;95693.91;;;6.46;99.40
68889;BME280;55930;47.412;8.790;2023-02-19T20:03:37;95701.63;;;6.33;100.00
68889;BME280;55930;47.412;8.790;2023-02-19T20:06:58;95696.63;;;6.39;100.00